createdAt,value
2019-06-26T00:00:59.234Z,99.90
2019-06-26T00:03:27.913Z,99.90
2019-06-26T00:05:56.658Z,99.90
2019-06-26T00:08:25.681Z,99.90
2019-06-26T00:10:54.373Z,99.90
2019-06-26T00:13:26.675Z,99.90
2019-06-26T00:15:53.065Z,99.90
2019-06-26T00:18:22.124Z,99.90
2019-06-26T00:20:50.479Z,99.90
2019-06-26T00:23:19.236Z,99.90
2019-06-26T00:25:47.906Z,99.90
2019-06-26T00:28:16.622Z,99.90
2019-06-26T00:30:45.475Z,99.90
2019-06-26T00:33:14.166Z,99.90
2019-06-26T00:35:42.879Z,99.90
2019-06-26T00:38:11.529Z,99.90
2019-06-26T00:40:40.942Z,99.90
2019-06-26T00:43:09.563Z,99.90
2019-06-26T00:45:38.205Z,99.90
2019-06-26T00:48:06.892Z,99.90
2019-06-26T00:50:35.604Z,99.90
2019-06-26T00:53:04.258Z,99.90
2019-06-26T00:55:33.058Z,99.90
2019-06-26T00:58:01.858Z,99.90
2019-06-26T01:00:35.785Z,99.90
2019-06-26T01:03:04.482Z,99.90
2019-06-26T01:05:34.447Z,99.90
2019-06-26T01:08:03.139Z,99.90
2019-06-26T01:10:31.841Z,99.90
2019-06-26T01:13:00.501Z,99.90
2019-06-26T01:15:29.250Z,99.90
2019-06-26T01:17:57.907Z,99.90
2019-06-26T01:20:26.563Z,99.90
2019-06-26T01:22:56.273Z,99.90
2019-06-26T01:25:25.221Z,99.90
2019-06-26T01:27:53.856Z,99.90
2019-06-26T01:30:24.316Z,99.90
2019-06-26T01:32:52.788Z,99.90
2019-06-26T01:35:21.539Z,99.90
2019-06-26T01:37:50.226Z,99.90
2019-06-26T01:40:18.971Z,99.90
2019-06-26T01:42:47.599Z,99.90
2019-06-26T01:45:16.282Z,99.90
2019-06-26T01:47:44.820Z,99.90
2019-06-26T01:50:14.483Z,99.90
2019-06-26T01:52:42.866Z,99.90
2019-06-26T01:55:11.581Z,99.90
2019-06-26T01:57:40.008Z,99.90
2019-06-26T02:00:10.015Z,99.90
2019-06-26T02:02:38.727Z,99.90
2019-06-26T02:05:07.526Z,99.90
2019-06-26T02:07:36.088Z,99.90
2019-06-26T02:10:05.243Z,99.90
2019-06-26T02:12:33.882Z,99.90
2019-06-26T02:15:02.493Z,99.90
2019-06-26T02:17:30.977Z,99.90
2019-06-26T02:19:59.315Z,99.90
2019-06-26T02:22:28.207Z,99.90
2019-06-26T02:24:57.752Z,99.90
2019-06-26T02:27:27.013Z,99.90
2019-06-26T02:29:55.395Z,99.90
2019-06-26T02:32:24.209Z,99.90
2019-06-26T02:34:52.861Z,99.90
2019-06-26T02:37:21.548Z,99.90
2019-06-26T02:39:50.272Z,99.90
2019-06-26T02:42:18.945Z,99.90
2019-06-26T02:44:53.850Z,99.90
2019-06-26T02:47:20.936Z,99.90
2019-06-26T02:49:49.685Z,99.90
2019-06-26T02:52:18.365Z,99.90
2019-06-26T02:54:48.904Z,99.90
2019-06-26T02:57:17.283Z,99.90
2019-06-26T02:59:45.847Z,99.90
2019-06-26T03:02:14.580Z,99.90
2019-06-26T03:04:43.228Z,99.90
2019-06-26T03:07:11.698Z,99.90
2019-06-26T03:09:40.438Z,99.90
2019-06-26T03:12:09.404Z,99.90
2019-06-26T03:14:38.192Z,99.90
2019-06-26T03:17:06.913Z,99.90
2019-06-26T03:19:35.551Z,99.90
2019-06-26T03:22:05.254Z,99.90
2019-06-26T03:24:34.336Z,99.90
2019-06-26T03:27:09.286Z,99.90
2019-06-26T03:29:38.103Z,99.90
2019-06-26T03:32:06.756Z,99.90
2019-06-26T03:34:35.456Z,99.90
2019-06-26T03:37:04.385Z,99.90
2019-06-26T03:39:33.011Z,99.90
2019-06-26T03:42:01.506Z,99.90
2019-06-26T03:44:30.228Z,99.90
2019-06-26T03:46:58.871Z,99.90
2019-06-26T03:49:27.562Z,99.90
2019-06-26T03:51:56.269Z,99.90
2019-06-26T03:54:24.726Z,99.90
2019-06-26T03:56:53.414Z,99.90
2019-06-26T03:59:22.126Z,99.90
2019-06-26T04:01:50.809Z,99.90
2019-06-26T04:04:19.467Z,99.90
2019-06-26T04:06:48.190Z,99.90
2019-06-26T04:09:16.926Z,99.90
2019-06-26T04:11:45.724Z,99.90
2019-06-26T04:14:14.453Z,99.90
2019-06-26T04:16:44.023Z,99.90
2019-06-26T04:19:12.816Z,99.90
2019-06-26T04:21:41.532Z,99.90
2019-06-26T04:24:10.218Z,99.90
2019-06-26T04:26:38.864Z,99.90
2019-06-26T04:29:07.380Z,99.90
2019-06-26T04:31:35.728Z,99.90
2019-06-26T04:34:04.528Z,99.90
2019-06-26T04:36:38.482Z,99.90
2019-06-26T04:39:07.826Z,99.90
2019-06-26T04:41:36.684Z,99.90
2019-06-26T04:44:05.128Z,99.90
2019-06-26T04:46:33.873Z,99.90
2019-06-26T04:49:02.368Z,99.90
2019-06-26T04:51:31.286Z,99.90
2019-06-26T04:53:59.940Z,99.90
2019-06-26T04:56:28.319Z,99.90
2019-06-26T04:58:57.145Z,99.90
2019-06-26T05:01:25.795Z,99.90
2019-06-26T05:03:59.950Z,99.90
2019-06-26T05:06:29.001Z,99.90
2019-06-26T05:08:58.233Z,99.90
2019-06-26T05:11:26.698Z,99.90
2019-06-26T05:13:55.362Z,99.90
2019-06-26T05:16:23.747Z,99.90
2019-06-26T05:18:52.568Z,99.90
2019-06-26T05:21:21.125Z,99.90
2019-06-26T05:23:49.693Z,99.90
2019-06-26T05:26:18.425Z,99.90
2019-06-26T05:28:48.133Z,99.90
2019-06-26T05:31:17.076Z,99.90
2019-06-26T05:33:45.599Z,99.90
2019-06-26T05:36:15.661Z,99.90
2019-06-26T05:38:44.479Z,99.90
2019-06-26T05:41:13.445Z,99.90
2019-06-26T05:43:42.649Z,99.90
2019-06-26T05:46:11.331Z,99.90
2019-06-26T05:48:39.873Z,99.90
2019-06-26T05:51:08.224Z,99.90
2019-06-26T05:53:36.986Z,99.90
2019-06-26T05:56:05.709Z,99.90
2019-06-26T05:58:34.363Z,99.90
2019-06-26T06:01:10.674Z,99.90
2019-06-26T06:03:59.549Z,99.90
2019-06-26T06:06:41.957Z,99.90
2019-06-26T06:09:16.002Z,99.90
2019-06-26T06:11:51.242Z,99.90
2019-06-26T06:14:32.501Z,99.90
2019-06-26T06:17:10.051Z,99.90
2019-06-26T06:19:47.390Z,99.90
2019-06-26T06:22:23.331Z,99.90
2019-06-26T06:24:59.210Z,99.90
2019-06-26T06:27:36.298Z,99.90
2019-06-26T06:30:15.592Z,99.90
2019-06-26T06:32:58.788Z,99.90
2019-06-26T06:35:37.707Z,99.90
2019-06-26T06:38:15.988Z,99.90
2019-06-26T06:40:54.816Z,99.90
2019-06-26T06:43:30.231Z,99.90
2019-06-26T06:46:15.591Z,99.90
2019-06-26T06:48:55.493Z,99.90
2019-06-26T06:51:37.402Z,99.90
2019-06-26T06:54:14.675Z,99.90
2019-06-26T06:56:51.476Z,99.90
2019-06-26T06:59:25.761Z,99.90
2019-06-26T07:02:09.419Z,99.90
2019-06-26T07:04:55.153Z,99.90
2019-06-26T07:07:32.814Z,99.90
2019-06-26T07:10:15.821Z,99.90
2019-06-26T07:12:51.938Z,99.90
2019-06-26T07:15:29.629Z,99.90
2019-06-26T07:18:04.254Z,99.90
2019-06-26T07:20:40.468Z,99.90
2019-06-26T07:23:25.052Z,99.90
2019-06-26T07:25:59.721Z,99.90
2019-06-26T07:28:41.419Z,99.90
2019-06-26T07:31:20.530Z,99.90
2019-06-26T07:33:57.767Z,99.90
2019-06-26T07:36:33.318Z,99.90
2019-06-26T07:39:11.224Z,99.90
2019-06-26T07:41:48.257Z,99.90
2019-06-26T07:44:22.828Z,99.90
2019-06-26T07:47:12.684Z,99.90
2019-06-26T07:49:39.704Z,99.90
2019-06-26T07:52:19.111Z,99.90
2019-06-26T07:54:57.364Z,99.90
2019-06-26T07:57:37.548Z,99.90
2019-06-26T08:00:18.516Z,99.90
2019-06-26T08:02:54.087Z,99.90
2019-06-26T08:05:29.530Z,99.90
2019-06-26T08:08:04.410Z,99.90
2019-06-26T08:10:49.167Z,99.90
2019-06-26T08:13:27.493Z,99.90
2019-06-26T08:15:59.401Z,99.90
2019-06-26T08:18:33.907Z,99.90
2019-06-26T08:21:12.995Z,99.90
2019-06-26T08:23:47.015Z,99.90
2019-06-26T08:26:20.807Z,99.90
2019-06-26T08:28:57.738Z,99.90
2019-06-26T08:31:35.871Z,99.90
2019-06-26T08:34:13.358Z,99.90
2019-06-26T08:36:47.431Z,99.90
2019-06-26T08:39:23.082Z,99.90
2019-06-26T08:41:56.255Z,99.90
2019-06-26T08:44:29.028Z,99.90
2019-06-26T08:47:01.853Z,99.90
2019-06-26T08:49:35.387Z,99.90
2019-06-26T08:52:10.605Z,99.90
2019-06-26T08:54:44.127Z,99.90
2019-06-26T08:57:20.469Z,99.90
2019-06-26T08:59:59.138Z,99.90
2019-06-26T09:02:34.481Z,99.90
2019-06-26T09:05:17.762Z,99.90
2019-06-26T09:08:02.863Z,99.90
2019-06-26T09:10:38.819Z,99.90
2019-06-26T09:13:12.562Z,99.90
2019-06-26T09:15:49.875Z,99.90
2019-06-26T09:18:34.989Z,99.90
2019-06-26T09:20:58.893Z,99.90
2019-06-26T09:23:32.617Z,99.90
2019-06-26T09:26:09.377Z,99.90
2019-06-26T09:28:48.398Z,99.90
2019-06-26T09:31:24.335Z,99.90
2019-06-26T09:34:00.099Z,99.90
2019-06-26T09:36:49.702Z,99.90
2019-06-26T09:39:37.923Z,99.90
2019-06-26T09:42:12.682Z,99.90
2019-06-26T09:44:46.515Z,99.90
2019-06-26T09:47:23.485Z,99.90
2019-06-26T09:49:59.513Z,99.90
2019-06-26T09:52:37.188Z,99.90
2019-06-26T09:55:18.851Z,99.90
2019-06-26T09:57:55.570Z,99.90
2019-06-26T10:00:38.835Z,99.90
2019-06-26T10:03:13.808Z,99.90
2019-06-26T10:05:54.633Z,99.90
2019-06-26T10:08:32.177Z,99.90
2019-06-26T10:11:11.879Z,99.90
2019-06-26T10:13:47.931Z,99.90
2019-06-26T10:16:23.747Z,99.90
2019-06-26T10:19:09.701Z,99.90
2019-06-26T10:21:35.330Z,99.90
2019-06-26T10:24:12.781Z,99.90
2019-06-26T10:26:53.724Z,99.90
2019-06-26T10:29:32.807Z,99.90
2019-06-26T10:32:10.654Z,99.90
2019-06-26T10:34:45.791Z,99.90
2019-06-26T10:37:23.416Z,99.90
2019-06-26T10:40:00.597Z,99.90
2019-06-26T10:42:40.856Z,99.90
2019-06-26T10:45:16.915Z,99.90
2019-06-26T10:47:50.877Z,99.90
2019-06-26T10:50:31.081Z,99.90
2019-06-26T10:53:10.290Z,99.90
2019-06-26T10:55:47.796Z,99.90
2019-06-26T10:58:28.551Z,99.90
2019-06-26T11:01:05.004Z,99.90
2019-06-26T11:03:51.322Z,99.90
2019-06-26T11:06:26.963Z,99.90
2019-06-26T11:09:04.521Z,99.90
2019-06-26T11:11:42.716Z,99.90
2019-06-26T11:14:19.056Z,99.90
2019-06-26T11:16:58.707Z,99.90
2019-06-26T11:19:44.319Z,99.90
2019-06-26T11:22:18.056Z,99.90
2019-06-26T11:24:59.703Z,99.90
2019-06-26T11:27:37.749Z,99.90
2019-06-26T11:30:15.700Z,99.70
2019-06-26T11:32:52.744Z,99.90
2019-06-26T11:35:31.690Z,99.50
2019-06-26T11:38:11.938Z,99.90
2019-06-26T11:40:48.869Z,99.50
2019-06-26T11:43:24.264Z,99.20
2019-06-26T11:46:01.064Z,98.50
2019-06-26T11:48:36.481Z,99.90
2019-06-26T11:51:13.618Z,98.10
2019-06-26T11:53:51.128Z,97.70
2019-06-26T11:56:29.670Z,98.40
2019-06-26T11:59:10.647Z,98.60
2019-06-26T12:01:49.060Z,98.90
2019-06-26T12:04:34.322Z,98.70
2019-06-26T12:07:20.430Z,99.60
2019-06-26T12:10:04.818Z,98.30
2019-06-26T12:12:51.298Z,98.40
2019-06-26T12:15:32.329Z,99.10
2019-06-26T12:18:08.986Z,97.70
2019-06-26T12:20:45.526Z,99.10
2019-06-26T12:23:28.575Z,99.20
2019-06-26T12:26:06.072Z,98.60
2019-06-26T12:28:45.897Z,98.60
2019-06-26T12:31:23.328Z,99.20
2019-06-26T12:34:00.185Z,98.50
2019-06-26T12:36:37.082Z,98.40
2019-06-26T12:39:12.667Z,99.20
2019-06-26T12:41:47.719Z,99.80
2019-06-26T12:44:16.199Z,99.90
2019-06-26T12:46:54.043Z,99.90
2019-06-26T12:49:30.601Z,99.90
2019-06-26T12:52:10.640Z,99.90
2019-06-26T12:54:46.105Z,99.90
2019-06-26T12:57:22.665Z,99.90
2019-06-26T12:59:58.279Z,99.00
2019-06-26T13:02:34.317Z,99.80
2019-06-26T13:05:13.133Z,99.90
2019-06-26T13:07:50.602Z,99.90
2019-06-26T13:10:30.270Z,99.90
2019-06-26T13:13:13.073Z,99.50
2019-06-26T13:15:51.059Z,99.80
2019-06-26T13:18:32.800Z,99.90
2019-06-26T13:21:16.730Z,99.90
2019-06-26T13:23:52.771Z,99.90
2019-06-26T13:26:31.818Z,99.90
2019-06-26T13:29:10.271Z,99.90
2019-06-26T13:31:46.034Z,99.90
2019-06-26T13:34:22.738Z,99.90
2019-06-26T13:36:56.787Z,99.90
2019-06-26T13:39:36.451Z,99.90
2019-06-26T13:42:11.930Z,99.90
2019-06-26T13:44:52.979Z,99.90
2019-06-26T13:47:26.577Z,99.90
2019-06-26T13:50:04.162Z,99.90
2019-06-26T13:52:41.928Z,99.90
2019-06-26T13:55:18.530Z,99.90
2019-06-26T13:57:56.759Z,99.90
2019-06-26T14:00:33.413Z,99.90
2019-06-26T14:03:15.323Z,99.90
2019-06-26T14:05:49.798Z,99.90
2019-06-26T14:08:32.705Z,99.90
2019-06-26T14:11:08.328Z,99.90
2019-06-26T14:13:49.155Z,99.90
2019-06-26T14:16:29.701Z,99.90
2019-06-26T14:19:07.188Z,99.90
2019-06-26T14:21:48.041Z,99.90
2019-06-26T14:24:24.497Z,99.90
2019-06-26T14:27:03.366Z,99.90
2019-06-26T14:29:42.402Z,99.90
2019-06-26T14:32:18.311Z,99.90
2019-06-26T14:34:56.391Z,99.90
2019-06-26T14:37:45.325Z,99.90
2019-06-26T14:40:14.649Z,99.90
2019-06-26T14:42:50.814Z,99.90
2019-06-26T14:45:28.060Z,99.90
2019-06-26T14:48:07.164Z,99.90
2019-06-26T14:50:48.971Z,99.90
2019-06-26T14:53:25.511Z,99.90
2019-06-26T14:56:05.930Z,99.90
2019-06-26T14:58:47.008Z,99.90
2019-06-26T15:01:27.061Z,99.90
2019-06-26T15:04:01.148Z,99.90
2019-06-26T15:06:41.019Z,99.90
2019-06-26T15:09:17.981Z,99.90
2019-06-26T15:11:59.039Z,99.90
2019-06-26T15:14:40.965Z,99.90
2019-06-26T15:17:22.830Z,99.90
2019-06-26T15:20:05.743Z,99.90
2019-06-26T15:22:41.569Z,99.90
2019-06-26T15:25:25.238Z,99.90
2019-06-26T15:28:05.889Z,99.90
2019-06-26T15:30:47.223Z,99.90
2019-06-26T15:33:24.153Z,99.90
2019-06-26T15:36:07.139Z,99.90
2019-06-26T15:38:46.023Z,99.90
2019-06-26T15:41:20.918Z,99.90
2019-06-26T15:43:58.296Z,99.90
2019-06-26T15:46:33.658Z,99.90
2019-06-26T15:49:09.449Z,99.90
2019-06-26T15:51:51.437Z,99.90
2019-06-26T15:54:23.084Z,99.90
2019-06-26T15:56:57.805Z,99.90
2019-06-26T15:59:35.407Z,99.90
2019-06-26T16:02:09.995Z,99.90
2019-06-26T16:04:52.375Z,99.90
2019-06-26T16:07:32.399Z,99.90
2019-06-26T16:10:06.815Z,99.90
2019-06-26T16:12:39.081Z,99.90
2019-06-26T16:15:15.366Z,99.90
2019-06-26T16:18:08.980Z,99.90
2019-06-26T16:20:43.355Z,99.90
2019-06-26T16:23:17.909Z,99.90
2019-06-26T16:25:55.599Z,99.90
2019-06-26T16:28:31.130Z,99.90
2019-06-26T16:31:11.234Z,99.90
2019-06-26T16:33:46.469Z,99.90
2019-06-26T16:36:23.116Z,99.90
2019-06-26T16:38:59.354Z,99.90
2019-06-26T16:41:35.324Z,99.90
2019-06-26T16:44:22.564Z,99.90
2019-06-26T16:47:08.208Z,99.90
2019-06-26T16:49:42.793Z,99.90
2019-06-26T16:52:18.579Z,99.90
2019-06-26T16:54:55.909Z,99.90
2019-06-26T16:57:33.008Z,99.90
2019-06-26T17:00:12.173Z,99.90
2019-06-26T17:02:49.698Z,99.90
2019-06-26T17:05:25.774Z,99.90
2019-06-26T17:07:59.547Z,99.90
2019-06-26T17:10:35.856Z,99.90
2019-06-26T17:13:14.220Z,99.90
2019-06-26T17:15:49.235Z,99.90
2019-06-26T17:18:27.875Z,99.90
2019-06-26T17:21:07.592Z,99.90
2019-06-26T17:23:40.725Z,99.90
2019-06-26T17:26:18.693Z,99.90
2019-06-26T17:29:15.575Z,99.90
2019-06-26T17:32:06.187Z,99.90
2019-06-26T17:34:48.833Z,99.90
2019-06-26T17:37:33.529Z,99.90
2019-06-26T17:40:16.185Z,99.90
2019-06-26T17:42:53.934Z,99.90
2019-06-26T17:45:33.670Z,99.90
2019-06-26T17:48:15.352Z,99.90
2019-06-26T17:51:00.218Z,99.90
2019-06-26T17:53:41.463Z,99.90
2019-06-26T17:56:22.532Z,99.90
2019-06-26T17:59:05.082Z,99.90
2019-06-26T18:01:52.782Z,99.90
2019-06-26T18:04:33.428Z,99.90
2019-06-26T18:07:13.830Z,99.90
2019-06-26T18:09:54.841Z,99.90
2019-06-26T18:12:40.298Z,99.90
2019-06-26T18:15:29.015Z,99.90
2019-06-26T18:18:20.574Z,99.90
2019-06-26T18:21:07.434Z,99.90
2019-06-26T18:23:58.863Z,99.90
2019-06-26T18:26:40.471Z,99.90
2019-06-26T18:29:25.023Z,99.90
2019-06-26T18:32:12.867Z,99.90
2019-06-26T18:34:59.376Z,99.90
2019-06-26T18:37:45.606Z,99.90
2019-06-26T18:40:40.061Z,99.90
2019-06-26T18:43:23.455Z,99.90
2019-06-26T18:46:11.202Z,99.90
2019-06-26T18:48:54.743Z,99.90
2019-06-26T18:51:33.708Z,99.90
2019-06-26T18:54:06.993Z,99.90
2019-06-26T18:56:41.466Z,99.90
2019-06-26T18:59:19.283Z,99.90
2019-06-26T19:01:56.956Z,99.90
2019-06-26T19:04:35.000Z,99.90
2019-06-26T19:07:15.603Z,99.90
2019-06-26T19:09:51.007Z,99.90
2019-06-26T19:12:27.508Z,99.90
2019-06-26T19:15:00.961Z,99.90
2019-06-26T19:17:41.447Z,99.90
2019-06-26T19:20:27.070Z,99.90
2019-06-26T19:23:01.845Z,99.90
2019-06-26T19:25:39.259Z,99.90
2019-06-26T19:28:14.848Z,99.90
2019-06-26T19:30:59.344Z,99.90
2019-06-26T19:33:32.466Z,99.90
2019-06-26T19:36:07.316Z,99.90
2019-06-26T19:38:44.151Z,99.90
2019-06-26T19:41:18.935Z,99.90
2019-06-26T19:43:54.483Z,99.90
2019-06-26T19:46:28.672Z,99.90
2019-06-26T19:49:05.140Z,99.90
2019-06-26T19:51:55.769Z,99.90
2019-06-26T19:54:53.635Z,99.90
2019-06-26T19:57:31.355Z,99.90
2019-06-26T20:00:07.225Z,99.90
2019-06-26T20:02:56.226Z,99.90
2019-06-26T20:05:49.344Z,99.90
2019-06-26T20:08:52.253Z,99.90
2019-06-26T20:11:36.456Z,99.90
2019-06-26T20:14:49.087Z,99.90
2019-06-26T20:17:46.279Z,99.90
2019-06-26T20:20:41.489Z,99.90
2019-06-26T20:23:47.424Z,99.90
2019-06-26T20:26:45.555Z,99.90
2019-06-26T20:29:41.446Z,99.90
2019-06-26T20:32:35.541Z,99.90
2019-06-26T20:35:31.834Z,99.90
2019-06-26T20:38:09.474Z,99.90
2019-06-26T20:40:38.874Z,99.90
2019-06-26T20:43:07.684Z,99.90
2019-06-26T20:45:36.418Z,99.90
2019-06-26T20:48:05.100Z,99.90
2019-06-26T20:50:33.857Z,99.90
2019-06-26T20:53:02.370Z,99.90
2019-06-26T20:55:30.960Z,99.90
2019-06-26T20:57:59.716Z,99.90
2019-06-26T21:00:28.353Z,99.90
2019-06-26T21:02:57.037Z,99.90
2019-06-26T21:05:28.770Z,99.90
2019-06-26T21:07:56.437Z,99.90
2019-06-26T21:10:25.117Z,99.90
2019-06-26T21:12:53.907Z,99.90
2019-06-26T21:15:22.791Z,99.90
2019-06-26T21:17:52.323Z,99.90
2019-06-26T21:20:21.331Z,99.90
2019-06-26T21:22:49.897Z,99.90
2019-06-26T21:25:19.750Z,99.90
2019-06-26T21:27:48.818Z,99.90
2019-06-26T21:30:17.675Z,99.90
2019-06-26T21:32:46.355Z,99.90
2019-06-26T21:35:14.808Z,99.90
2019-06-26T21:37:43.533Z,99.90
2019-06-26T21:40:12.696Z,99.90
2019-06-26T21:42:41.343Z,99.90
2019-06-26T21:45:10.295Z,99.90
2019-06-26T21:47:39.085Z,99.90
2019-06-26T21:50:07.852Z,99.90
2019-06-26T21:52:36.465Z,99.90
2019-06-26T21:55:05.496Z,99.90
2019-06-26T21:57:52.608Z,99.90
2019-06-26T22:00:40.302Z,99.90
2019-06-26T22:03:27.681Z,99.90
2019-06-26T22:05:59.548Z,99.90
2019-06-26T22:08:39.060Z,99.90
2019-06-26T22:11:07.904Z,99.90
2019-06-26T22:13:36.724Z,99.90
2019-06-26T22:16:05.255Z,99.90
2019-06-26T22:18:33.983Z,99.90
2019-06-26T22:21:03.183Z,99.90
2019-06-26T22:23:31.684Z,99.90
2019-06-26T22:26:00.480Z,99.90
2019-06-26T22:28:28.923Z,99.90
2019-06-26T22:30:57.644Z,99.90
2019-06-26T22:33:26.316Z,99.90
2019-06-26T22:35:54.993Z,99.90
2019-06-26T22:38:24.138Z,99.90
2019-06-26T22:40:52.952Z,99.90
2019-06-26T22:43:21.649Z,99.90
2019-06-26T22:45:50.377Z,99.90
2019-06-26T22:48:19.021Z,99.90
2019-06-26T22:50:47.904Z,99.90
2019-06-26T22:53:16.656Z,99.90
2019-06-26T22:55:45.506Z,99.90
2019-06-26T22:58:13.878Z,99.90
2019-06-26T23:00:42.680Z,99.90
2019-06-26T23:03:11.322Z,99.90
2019-06-26T23:05:40.027Z,99.90
2019-06-26T23:08:08.733Z,99.90
2019-06-26T23:10:37.389Z,99.90
2019-06-26T23:13:09.519Z,99.90
2019-06-26T23:15:36.582Z,99.90
2019-06-26T23:18:05.292Z,99.90
2019-06-26T23:20:33.977Z,99.90
2019-06-26T23:23:03.325Z,99.90
2019-06-26T23:25:31.859Z,99.90
2019-06-26T23:28:00.648Z,99.90
2019-06-26T23:30:29.372Z,99.90
2019-06-26T23:32:58.019Z,99.90
2019-06-26T23:35:26.719Z,99.90
2019-06-26T23:37:55.426Z,99.90
2019-06-26T23:40:24.071Z,99.90
2019-06-26T23:42:52.751Z,99.90
2019-06-26T23:45:21.325Z,99.90
2019-06-26T23:47:49.826Z,99.90
2019-06-26T23:50:18.340Z,99.90
2019-06-26T23:52:46.730Z,99.90
2019-06-26T23:55:15.360Z,99.90
2019-06-26T23:57:57.980Z,99.90
